Time;durP1;ratioP1;P1;durP2;ratioP2;P2;SDS_P1;SDS_P2;PMS_P1;PMS_P2;Temp;Humidity;BMP_temperature;BMP_pressure;BME280_temperature;BME280_humidity;BME280_pressure;Samples;Min_cycle;Max_cycle;Signal;HPM_P1;HPM_P2
2021/12/29 00:03:00;;;;;;;13.00;6.30;;;;;;;2.94;100.00;98775.94;6327526;28;20036;-89
2021/12/29 00:06:02;;;;;;;13.27;7.00;;;;;;;2.82;100.00;98792.19;6310715;28;20560;-88
2021/12/29 00:09:05;;;;;;;13.48;6.80;;;;;;;2.84;100.00;98800.56;6335916;28;20071;-88
2021/12/29 00:12:09;;;;;;;14.35;6.63;;;;;;;2.72;100.00;98798.00;6329862;28;20702;-89
2021/12/29 00:15:13;;;;;;;14.45;6.95;;;;;;;2.50;100.00;98801.31;6303483;28;20035;-89
2021/12/29 00:18:15;;;;;;;13.13;6.88;;;;;;;2.51;100.00;98814.88;6329389;28;20043;-88
2021/12/29 00:21:35;;;;;;;13.18;7.05;;;;;;;2.67;100.00;98823.06;6310256;28;20051;-88
2021/12/29 00:24:37;;;;;;;14.85;7.28;;;;;;;2.97;100.00;98831.94;6309271;28;20170;-88
2021/12/29 00:27:39;;;;;;;20.23;8.70;;;;;;;3.42;100.00;98847.28;6303562;28;20036;-88
2021/12/29 00:30:42;;;;;;;21.23;9.07;;;;;;;3.72;100.00;98849.22;6329404;28;20042;-88
2021/12/29 00:34:03;;;;;;;16.23;8.45;;;;;;;3.85;100.00;98847.34;6322264;28;20035;-88
2021/12/29 00:37:25;;;;;;;16.42;8.95;;;;;;;3.82;100.00;98855.25;6327276;28;20079;-88
2021/12/29 00:40:45;;;;;;;18.88;9.55;;;;;;;3.77;100.00;98862.47;6337613;28;20075;-88
2021/12/29 00:44:09;;;;;;;17.48;9.18;;;;;;;3.61;100.00;98862.03;6330667;28;20044;-88
2021/12/29 00:47:32;;;;;;;16.20;9.23;;;;;;;3.54;100.00;98871.91;6333512;28;20040;-88
2021/12/29 00:50:34;;;;;;;18.75;9.00;;;;;;;3.50;100.00;98874.81;6301242;28;20051;-88
2021/12/29 00:53:36;;;;;;;20.73;9.57;;;;;;;3.44;100.00;98878.69;6320995;28;20032;-88
2021/12/29 00:56:44;;;;;;;15.82;8.77;;;;;;;3.40;100.00;98873.00;6297218;28;20100;-88
2021/12/29 00:59:45;;;;;;;15.65;9.35;;;;;;;3.41;100.00;98884.03;6303500;28;20048;-88
2021/12/29 01:02:48;;;;;;;16.35;8.85;;;;;;;3.42;100.00;98894.13;6323257;28;20047;-88
2021/12/29 01:05:50;;;;;;;16.00;8.70;;;;;;;3.45;100.00;98899.03;6309794;28;20036;-88
2021/12/29 01:08:52;;;;;;;16.10;8.75;;;;;;;3.46;100.00;98904.94;6307061;28;20048;-88
2021/12/29 01:11:56;;;;;;;16.50;9.00;;;;;;;3.47;100.00;98904.00;6328114;28;20048;-88
2021/12/29 01:15:01;;;;;;;16.83;8.93;;;;;;;3.57;100.00;98904.13;6316587;28;20040;-88
2021/12/29 01:18:06;;;;;;;16.88;9.43;;;;;;;3.59;100.00;98913.31;6322233;28;20044;-88
2021/12/29 01:21:08;;;;;;;15.18;8.23;;;;;;;3.62;100.00;98922.50;6290742;28;20177;-88
2021/12/29 01:24:11;;;;;;;16.02;8.55;;;;;;;3.61;100.00;98913.22;6330730;28;20043;-88
2021/12/29 01:27:15;;;;;;;14.20;7.80;;;;;;;3.61;100.00;98911.47;6327251;28;20504;-88
2021/12/29 01:30:17;;;;;;;16.60;9.40;;;;;;;3.61;100.00;98920.88;6326949;28;20122;-88
2021/12/29 01:33:20;;;;;;;13.40;8.45;;;;;;;3.56;100.00;98925.53;6327078;28;20165;-88
2021/12/29 01:36:22;;;;;;;15.43;9.25;;;;;;;3.53;100.00;98929.13;6314874;28;20048;-88
2021/12/29 01:39:24;;;;;;;20.05;10.20;;;;;;;3.52;100.00;98935.16;6310613;28;20040;-88
2021/12/29 01:42:26;;;;;;;15.98;9.93;;;;;;;3.52;100.00;98950.50;6316731;28;20040;-88
2021/12/29 01:45:28;;;;;;;18.65;9.27;;;;;;;3.52;100.00;98944.59;6333449;28;20209;-88
2021/12/29 01:48:30;;;;;;;20.55;10.90;;;;;;;3.53;100.00;98941.94;6328467;28;20461;-88
2021/12/29 01:51:34;;;;;;;19.52;10.10;;;;;;;3.55;100.00;98949.47;6316703;28;20036;-88
2021/12/29 01:54:39;;;;;;;18.58;9.77;;;;;;;3.60;100.00;98944.81;6337032;28;20064;-88
2021/12/29 01:57:43;;;;;;;21.50;11.18;;;;;;;3.65;100.00;98946.13;6332406;28;20035;-88
2021/12/29 02:01:03;;;;;;;24.95;11.15;;;;;;;3.69;100.00;98956.13;6333700;28;20043;-88
2021/12/29 02:04:05;;;;;;;18.27;10.48;;;;;;;3.69;100.00;98964.59;6321736;28;20062;-88
2021/12/29 02:07:07;;;;;;;18.98;10.65;;;;;;;3.69;100.00;98966.34;6318857;28;20114;-88
2021/12/29 02:10:12;;;;;;;20.60;9.98;;;;;;;3.65;100.00;98969.16;6295293;28;20655;-88
2021/12/29 02:13:14;;;;;;;19.92;10.73;;;;;;;3.65;100.00;98964.03;6333378;28;20067;-88
2021/12/29 02:16:16;;;;;;;21.73;10.50;;;;;;;3.65;100.00;98971.72;6326763;28;20048;-88
2021/12/29 02:19:18;;;;;;;20.63;9.95;;;;;;;3.69;100.00;98981.72;6330618;28;20032;-88
2021/12/29 02:22:35;;;;;;;16.25;9.82;;;;;;;3.69;100.00;98991.94;6337217;28;20424;-88
2021/12/29 02:25:51;;;;;;;19.95;10.55;;;;;;;3.75;100.00;99004.25;6328072;28;20044;-88
2021/12/29 02:28:55;;;;;;;22.45;11.70;;;;;;;3.79;100.00;99014.16;6327164;28;20058;-88
2021/12/29 02:31:58;;;;;;;24.50;11.23;;;;;;;3.82;100.00;99010.56;6328304;28;20032;-88
2021/12/29 02:35:01;;;;;;;18.58;10.23;;;;;;;3.84;100.00;99034.28;6319338;28;20042;-88
2021/12/29 02:38:08;;;;;;;21.52;10.73;;;;;;;3.83;100.00;99030.13;6313671;28;20489;-88
2021/12/29 02:41:10;;;;;;;23.98;10.80;;;;;;;3.86;100.00;99035.00;6334780;28;20489;-88
2021/12/29 02:44:18;;;;;;;21.13;10.27;;;;;;;3.85;100.00;99028.22;6327915;28;20071;-88
2021/12/29 02:47:20;;;;;;;21.48;10.55;;;;;;;3.86;100.00;99040.13;6333487;28;20385;-88
2021/12/29 02:50:22;;;;;;;21.45;10.32;;;;;;;3.89;100.00;99048.38;6332044;28;20784;-88
2021/12/29 02:53:25;;;;;;;21.75;10.77;;;;;;;3.89;100.00;99048.38;6315104;28;20046;-88
2021/12/29 02:56:29;;;;;;;22.30;11.57;;;;;;;3.90;100.00;99064.56;6320104;28;20507;-88
2021/12/29 02:59:44;;;;;;;22.75;11.25;;;;;;;3.93;100.00;99050.72;6331830;28;20463;-88
2021/12/29 03:02:46;;;;;;;21.75;11.75;;;;;;;3.94;100.00;99060.81;6335100;28;20048;-88
2021/12/29 03:05:48;;;;;;;23.92;12.05;;;;;;;3.94;100.00;99062.56;6331123;28;20058;-88
2021/12/29 03:08:51;;;;;;;22.70;12.32;;;;;;;3.92;100.00;99060.13;6330712;28;20756;-88
2021/12/29 03:11:54;;;;;;;23.27;11.50;;;;;;;3.91;100.00;99060.25;6329000;28;20071;-88
2021/12/29 03:14:58;;;;;;;26.25;11.55;;;;;;;3.95;100.00;99070.16;6333665;28;20048;-88
2021/12/29 03:18:00;;;;;;;20.63;10.52;;;;;;;3.95;100.00;99074.44;6316437;28;20043;-88
2021/12/29 03:21:15;;;;;;;19.95;10.82;;;;;;;3.96;100.00;99066.66;6327785;28;20036;-88
2021/12/29 03:24:20;;;;;;;21.33;11.05;;;;;;;3.93;100.00;99066.06;6334038;28;20573;-88
2021/12/29 03:27:22;;;;;;;22.13;9.85;;;;;;;3.91;100.00;99071.28;6317911;28;20044;-88
2021/12/29 03:30:29;;;;;;;16.45;8.93;;;;;;;3.95;100.00;99074.44;6333598;28;20189;-88
2021/12/29 03:33:30;;;;;;;18.25;8.93;;;;;;;3.98;100.00;99076.78;6340374;28;20701;-88
2021/12/29 03:36:33;;;;;;;22.35;9.40;;;;;;;3.98;100.00;99077.59;6340269;28;20551;-88
2021/12/29 03:39:38;;;;;;;53.03;11.95;;;;;;;3.98;100.00;99090.41;6340303;28;20409;-88
2021/12/29 03:42:46;;;;;;;19.50;9.00;;;;;;;3.95;100.00;99088.06;6318637;28;20047;-89
2021/12/29 03:45:54;;;;;;;27.30;10.15;;;;;;;3.93;100.00;99095.03;6326818;28;20176;-89
2021/12/29 03:48:56;;;;;;;20.60;9.25;;;;;;;3.92;100.00;99100.25;6317298;28;20035;-89
2021/12/29 03:51:58;;;;;;;22.50;9.82;;;;;;;3.93;100.00;99101.91;6318099;28;20048;-89
2021/12/29 03:55:02;;;;;;;55.20;13.68;;;;;;;3.93;100.00;99107.03;6330932;28;20123;-89
2021/12/29 03:58:04;;;;;;;23.38;9.25;;;;;;;3.92;100.00;99110.50;6330860;28;20063;-89
2021/12/29 04:01:10;;;;;;;74.70;13.30;;;;;;;3.92;100.00;99115.63;6306815;28;20052;-89
2021/12/29 04:04:12;;;;;;;30.90;9.98;;;;;;;3.92;100.00;99115.63;6327191;28;20118;-89
2021/12/29 04:07:14;;;;;;;34.08;9.27;;;;;;;3.92;100.00;99116.44;6332068;28;20053;-89
2021/12/29 04:10:16;;;;;;;23.55;9.10;;;;;;;3.97;100.00;99114.34;6333806;28;20062;-89
2021/12/29 04:13:18;;;;;;;33.97;9.48;;;;;;;4.04;100.00;99123.19;6334557;28;20512;-89
2021/12/29 04:16:27;;;;;;;21.95;8.38;;;;;;;4.10;100.00;99125.31;6335849;28;20059;-89
2021/12/29 04:19:32;;;;;;;12.25;6.00;;;;;;;4.21;100.00;99132.19;6335541;28;20043;-89
2021/12/29 04:22:34;;;;;;;12.13;6.32;;;;;;;4.32;100.00;99144.19;6325735;28;20401;-89
2021/12/29 04:25:38;;;;;;;11.63;6.03;;;;;;;4.45;100.00;99147.47;6322162;28;20130;-89
2021/12/29 04:28:40;;;;;;;10.88;5.28;;;;;;;4.54;100.00;99149.31;6334572;28;20035;-89
2021/12/29 04:31:42;;;;;;;11.13;5.15;;;;;;;4.59;100.00;99150.72;6321208;28;20051;-89
2021/12/29 04:34:45;;;;;;;12.23;5.28;;;;;;;4.68;100.00;99158.53;6326606;28;20035;-89
2021/12/29 04:37:47;;;;;;;13.63;5.55;;;;;;;4.79;100.00;99164.56;6335212;28;20052;-89
2021/12/29 04:40:50;;;;;;;9.52;5.00;;;;;;;4.83;100.00;99177.03;6326860;28;20028;-89
2021/12/29 04:43:53;;;;;;;11.13;4.72;;;;;;;4.82;100.00;99182.28;6329402;28;20043;-89
2021/12/29 04:46:57;;;;;;;11.95;5.55;;;;;;;4.95;100.00;99176.09;6334354;28;20035;-89
2021/12/29 04:50:02;;;;;;;12.65;5.85;;;;;;;5.05;100.00;99188.22;6334818;28;20046;-89
2021/12/29 04:53:06;;;;;;;15.38;6.32;;;;;;;5.09;100.00;99189.59;6320963;28;20064;-89
2021/12/29 04:56:08;;;;;;;13.07;5.93;;;;;;;5.20;100.00;99196.47;6313112;28;20040;-88
2021/12/29 04:59:11;;;;;;;12.02;5.70;;;;;;;5.24;100.00;99208.09;6333901;28;20044;-88
2021/12/29 05:02:13;;;;;;;11.63;5.88;;;;;;;5.29;100.00;99209.38;6328006;28;20606;-89
2021/12/29 05:08:32;;;;;;;13.25;5.32;;;;;;;5.24;100.00;99219.19;6336787;28;20508;-89
2021/12/29 05:11:34;;;;;;;10.77;4.38;;;;;;;5.20;100.00;99222.91;6316041;28;20077;-89
2021/12/29 05:14:37;;;;;;;11.32;4.93;;;;;;;5.18;100.00;99230.72;6330805;28;20400;-90
2021/12/29 05:17:39;;;;;;;13.23;5.00;;;;;;;5.17;100.00;99238.56;6328917;28;20027;-89
2021/12/29 05:20:41;;;;;;;9.52;4.70;;;;;;;5.26;100.00;99232.69;6331080;28;20036;-90
2021/12/29 05:23:43;;;;;;;14.15;5.60;;;;;;;5.24;100.00;99238.88;6339483;28;20035;-90
2021/12/29 05:26:45;;;;;;;11.15;4.75;;;;;;;5.28;100.00;99245.41;6311739;28;20112;-90
2021/12/29 05:29:47;;;;;;;9.15;4.30;;;;;;;5.24;100.00;99244.00;6335908;28;20071;-90
2021/12/29 05:32:50;;;;;;;16.05;5.95;;;;;;;5.26;100.00;99253.22;6316894;28;20036;-90
2021/12/29 05:35:52;;;;;;;15.73;5.40;;;;;;;5.22;100.00;99253.56;6340137;28;20677;-89
2021/12/29 05:38:56;;;;;;;12.88;5.40;;;;;;;5.23;100.00;99257.78;6338393;28;20035;-89
2021/12/29 05:41:58;;;;;;;14.73;5.90;;;;;;;5.25;100.00;99256.72;6338591;28;20042;-90
2021/12/29 05:45:05;;;;;;;13.07;5.82;;;;;;;5.21;100.00;99269.91;6339208;28;20396;-90
2021/12/29 05:48:08;;;;;;;13.00;5.53;;;;;;;5.13;100.00;99266.19;6330935;28;20040;-90
2021/12/29 05:51:12;;;;;;;12.65;5.82;;;;;;;5.24;100.00;99272.22;6335210;28;20511;-90
2021/12/29 05:54:13;;;;;;;14.90;6.07;;;;;;;5.26;100.00;99280.63;6325704;28;20061;-90
2021/12/29 05:57:16;;;;;;;12.25;5.25;;;;;;;5.30;100.00;99282.84;6331152;28;20539;-90
2021/12/29 06:00:20;;;;;;;12.13;5.95;;;;;;;5.33;100.00;99284.34;6323150;28;20044;-90
2021/12/29 06:03:22;;;;;;;12.35;5.82;;;;;;;5.21;100.00;99277.59;6338620;28;20058;-90
2021/12/29 06:06:25;;;;;;;14.15;5.30;;;;;;;5.21;100.00;99280.97;6330569;28;20043;-90
2021/12/29 06:09:41;;;;;;;11.93;4.13;;;;;;;5.23;100.00;99289.38;6307518;28;20044;-90
2021/12/29 06:12:43;;;;;;;12.35;4.40;;;;;;;5.23;100.00;99288.56;6325744;28;20111;-90
2021/12/29 06:15:46;;;;;;;10.15;4.68;;;;;;;5.17;100.00;99295.00;6330615;28;20031;-90
2021/12/29 06:18:48;;;;;;;12.10;5.80;;;;;;;5.12;100.00;99297.91;6335104;28;20039;-90
2021/12/29 06:21:50;;;;;;;14.48;4.97;;;;;;;5.11;100.00;99303.94;6331766;28;20040;-90
2021/12/29 06:24:53;;;;;;;12.05;4.53;;;;;;;5.12;100.00;99323.56;6316332;28;20044;-90
2021/12/29 06:27:55;;;;;;;13.00;5.35;;;;;;;5.14;100.00;99328.53;6329917;28;20050;-89
2021/12/29 06:30:57;;;;;;;13.18;5.43;;;;;;;5.13;100.00;99335.44;6332412;28;20044;-90
2021/12/29 06:34:01;;;;;;;12.05;5.40;;;;;;;5.25;100.00;99340.56;6336664;28;20035;-89
2021/12/29 06:37:08;;;;;;;12.82;5.78;;;;;;;5.17;100.00;99338.59;6325058;28;20032;-90
2021/12/29 06:40:13;;;;;;;13.73;5.32;;;;;;;5.27;100.00;99343.84;6336870;28;20043;-89
2021/12/29 06:43:15;;;;;;;15.40;5.65;;;;;;;5.25;100.00;99346.53;6319897;28;20046;-90
2021/12/29 06:46:17;;;;;;;15.65;5.97;;;;;;;5.26;100.00;99360.97;6337454;28;20039;-89
2021/12/29 06:49:21;;;;;;;16.10;5.75;;;;;;;5.28;100.00;99364.25;6337536;28;20035;-90
2021/12/29 06:52:23;;;;;;;14.77;6.40;;;;;;;5.27;100.00;99377.19;6330094;28;20242;-90
2021/12/29 06:55:26;;;;;;;16.77;5.65;;;;;;;5.33;100.00;99376.72;6316554;28;20141;-90
2021/12/29 06:58:28;;;;;;;13.93;5.30;;;;;;;5.30;100.00;99398.28;6297758;28;20052;-90
2021/12/29 07:01:30;;;;;;;14.02;5.53;;;;;;;5.33;100.00;99394.69;6301061;28;20133;-90
2021/12/29 07:04:33;;;;;;;15.65;6.10;;;;;;;5.37;100.00;99398.66;6323837;28;20853;-90
2021/12/29 07:07:35;;;;;;;16.38;5.47;;;;;;;5.37;100.00;99398.66;6328727;28;20040;-90
2021/12/29 07:10:40;;;;;;;15.35;5.47;;;;;;;5.37;100.00;99411.50;6304500;28;20694;-91
2021/12/29 07:13:44;;;;;;;18.15;5.47;;;;;;;5.36;100.00;99420.91;6323797;28;20038;-91
2021/12/29 07:16:47;;;;;;;16.65;5.05;;;;;;;5.36;100.00;99427.81;6320428;28;20048;-91
2021/12/29 07:19:49;;;;;;;16.35;5.13;;;;;;;5.40;100.00;99432.59;6330439;28;20144;-92
2021/12/29 07:22:52;;;;;;;15.73;4.93;;;;;;;5.49;100.00;99427.69;6333348;28;20047;-91
2021/12/29 07:25:54;;;;;;;15.02;4.68;;;;;;;5.48;100.00;99436.34;6322748;28;20051;-91
2021/12/29 07:28:56;;;;;;;14.75;4.85;;;;;;;5.54;100.00;99441.84;6337763;28;20252;-92
2021/12/29 07:31:58;;;;;;;15.90;4.38;;;;;;;5.56;100.00;99444.25;6315784;28;20052;-91
2021/12/29 07:35:00;;;;;;;10.60;3.45;;;;;;;5.61;100.00;99447.31;6314386;28;20040;-92
2021/12/29 07:38:03;;;;;;;12.60;4.03;;;;;;;5.63;100.00;99454.91;6328228;28;20040;-91
2021/12/29 07:41:04;;;;;;;8.75;3.15;;;;;;;5.69;100.00;99457.00;6331503;28;20404;-92
2021/12/29 07:44:11;;;;;;;6.85;2.70;;;;;;;5.68;100.00;99460.50;6334641;28;20586;-92
2021/12/29 07:47:14;;;;;;;5.82;2.60;;;;;;;5.64;100.00;99459.09;6334193;28;20040;-91
2021/12/29 07:50:18;;;;;;;5.07;2.38;;;;;;;5.71;100.00;99465.41;6313023;28;20090;-92
2021/12/29 07:53:37;;;;;;;4.32;2.22;;;;;;;5.75;100.00;99469.38;6336017;28;20043;-91
2021/12/29 07:56:40;;;;;;;5.82;2.72;;;;;;;5.76;100.00;99482.09;6329842;28;20532;-91
2021/12/29 07:59:43;;;;;;;5.45;2.28;;;;;;;5.80;100.00;99498.91;6331527;28;20782;-92
2021/12/29 08:02:47;;;;;;;4.38;2.78;;;;;;;5.83;100.00;99495.28;6348733;28;20074;-92
2021/12/29 08:05:50;;;;;;;6.90;3.40;;;;;;;5.89;100.00;99496.56;6348348;28;20499;-92
2021/12/29 08:08:53;;;;;;;5.32;3.20;;;;;;;5.91;100.00;99500.63;6348517;28;20591;-92
2021/12/29 08:11:56;;;;;;;6.47;3.83;;;;;;;5.89;100.00;99496.56;6302833;28;20043;-91
2021/12/29 08:14:58;;;;;;;8.35;4.13;;;;;;;5.90;100.00;99498.22;6338577;28;20515;-92
2021/12/29 08:18:02;;;;;;;7.70;4.38;;;;;;;5.91;100.00;99497.25;6318732;28;20036;-92
2021/12/29 08:21:04;;;;;;;9.38;4.65;;;;;;;5.92;100.00;99498.91;6316892;28;20074;-92
2021/12/29 08:24:06;;;;;;;9.73;5.10;;;;;;;5.96;100.00;99508.88;6312770;28;20035;-91
2021/12/29 08:27:10;;;;;;;11.15;4.70;;;;;;;5.99;100.00;99510.38;6329875;28;20539;-91
2021/12/29 08:30:13;;;;;;;9.80;5.00;;;;;;;6.02;100.00;99523.00;6331731;28;20504;-91
2021/12/29 08:33:15;;;;;;;9.00;4.78;;;;;;;6.03;100.00;99515.16;6328279;28;20036;-91
2021/12/29 08:36:17;;;;;;;9.00;4.80;;;;;;;6.02;100.00;99523.81;6316502;28;20588;-91
2021/12/29 08:39:19;;;;;;;10.70;5.38;;;;;;;5.99;100.00;99526.63;6328261;28;20040;-91
2021/12/29 08:42:23;;;;;;;12.73;5.07;;;;;;;6.07;100.00;99530.34;6325467;28;20412;-91
2021/12/29 08:45:26;;;;;;;11.63;5.55;;;;;;;6.10;100.00;99522.41;6318694;28;20044;-90
2021/12/29 08:48:29;;;;;;;12.77;6.45;;;;;;;6.17;100.00;99532.09;6321354;28;20040;-91
2021/12/29 08:51:31;;;;;;;12.57;6.00;;;;;;;6.18;100.00;99536.28;6324318;28;20044;-91
2021/12/29 08:54:34;;;;;;;12.50;5.75;;;;;;;6.15;100.00;99526.25;6335483;28;20140;-90
2021/12/29 08:57:36;;;;;;;14.15;6.43;;;;;;;6.17;100.00;99532.09;6332105;28;20039;-91
2021/12/29 09:00:45;;;;;;;14.55;7.10;;;;;;;6.19;100.00;99534.56;6338413;28;20039;-92
2021/12/29 09:03:48;;;;;;;16.40;6.88;;;;;;;6.24;100.00;99537.59;6324311;28;20052;-91
2021/12/29 09:06:52;;;;;;;13.20;7.28;;;;;;;6.29;100.00;99550.91;6340431;28;20047;-90
2021/12/29 09:09:53;;;;;;;17.90;7.03;;;;;;;6.30;100.00;99552.53;6325258;28;20560;-91
2021/12/29 09:12:56;;;;;;;17.55;7.68;;;;;;;6.29;100.00;99553.47;6296748;28;20647;-92
2021/12/29 09:15:59;;;;;;;14.88;7.15;;;;;;;6.29;100.00;99565.50;6345505;28;20534;-91
2021/12/29 09:19:01;;;;;;;13.95;6.78;;;;;;;6.35;100.00;99559.88;6325581;28;20043;-91
2021/12/29 09:22:03;;;;;;;17.48;7.32;;;;;;;6.33;100.00;99565.13;6340937;28;20039;-92
2021/12/29 09:25:06;;;;;;;15.80;6.30;;;;;;;6.32;100.00;99566.06;6330021;28;20032;-91
2021/12/29 09:28:10;;;;;;;14.10;7.28;;;;;;;6.35;100.00;99570.16;6344297;28;20044;-92
2021/12/29 09:31:14;;;;;;;13.68;5.80;;;;;;;6.39;100.00;99564.69;6324146;28;20062;-93
2021/12/29 09:45:30;;;;;;;9.23;4.43;;;;;;;6.42;100.00;99589.31;6163276;23;20078;-94
2021/12/29 09:48:36;;;;;;;7.88;4.25;;;;;;;6.43;100.00;99586.66;6036560;29;20061;-94
2021/12/29 09:51:40;;;;;;;8.70;4.80;;;;;;;6.48;100.00;99591.41;6051285;29;20072;-94
2021/12/29 09:54:42;;;;;;;8.02;3.75;;;;;;;6.52;100.00;99584.28;6042598;29;20075;-94
2021/12/29 09:57:47;;;;;;;6.55;4.05;;;;;;;6.53;100.00;99591.88;6025380;29;20107;-93
2021/12/29 10:00:54;;;;;;;7.95;3.75;;;;;;;6.52;100.00;99590.25;6026523;29;20125;-93
2021/12/29 10:03:57;;;;;;;7.88;4.10;;;;;;;6.50;100.00;99589.53;6002300;29;20070;-93
2021/12/29 10:07:10;;;;;;;7.85;4.53;;;;;;;6.57;100.00;99601.00;6027288;29;20038;-93
2021/12/29 10:10:20;;;;;;;5.80;3.60;;;;;;;6.66;100.00;99607.19;6017777;29;20054;-93
2021/12/29 10:13:24;;;;;;;8.03;4.67;;;;;;;6.67;100.00;99604.47;6027535;29;20045;-93
2021/12/29 10:16:47;;;;;;;7.45;3.70;;;;;;;6.75;100.00;99608.22;6035091;29;20049;-92
2021/12/29 10:20:03;;;;;;;6.97;3.85;;;;;;;6.78;100.00;99616.53;6030861;29;20512;-92
2021/12/29 10:23:07;;;;;;;5.18;3.30;;;;;;;6.78;100.00;99623.41;6033869;29;20061;-93
2021/12/29 10:26:22;;;;;;;5.28;2.90;;;;;;;6.79;100.00;99619.91;6030374;29;20045;-92
2021/12/29 10:29:28;;;;;;;4.30;2.70;;;;;;;6.75;100.00;99614.19;6030601;29;20052;-92
2021/12/29 10:32:30;;;;;;;4.00;2.63;;;;;;;6.76;100.00;99620.97;6031589;29;20148;-93
2021/12/29 10:35:33;;;;;;;6.28;2.90;;;;;;;6.76;100.00;99631.25;6031279;29;20091;-92
2021/12/29 10:38:35;;;;;;;3.42;2.50;;;;;;;6.85;100.00;99640.00;6029545;29;20054;-92
2021/12/29 10:42:06;;;;;;;4.25;2.80;;;;;;;6.96;100.00;99632.28;6029077;29;20684;-92
2021/12/29 10:45:08;;;;;;;4.13;2.88;;;;;;;6.98;100.00;99640.69;6023405;29;20504;-91
2021/12/29 10:48:32;;;;;;;4.55;2.78;;;;;;;7.02;100.00;99648.97;6029322;29;20147;-91
2021/12/29 10:51:38;;;;;;;4.57;3.00;;;;;;;7.04;100.00;99660.78;6026377;29;20084;-91
2021/12/29 10:54:40;;;;;;;4.63;2.65;;;;;;;7.00;100.00;99653.44;6022698;29;20149;-91
2021/12/29 10:57:44;;;;;;;4.07;2.80;;;;;;;6.93;100.00;99663.38;6027045;29;20841;-92
2021/12/29 11:01:09;;;;;;;4.97;3.42;;;;;;;6.95;100.00;99656.34;6027184;29;20046;-93
2021/12/29 11:04:13;;;;;;;5.25;3.30;;;;;;;6.92;100.00;99666.06;6013978;29;20048;-93
2021/12/29 11:07:32;;;;;;;5.70;3.42;;;;;;;6.94;100.00;99661.63;6042921;29;20065;-94
2021/12/29 11:10:40;;;;;;;5.15;3.38;;;;;;;6.82;100.00;99656.50;6042519;29;20087;-94
2021/12/29 11:26:36;;;;;;;8.32;4.95;;;;;;;6.99;100.00;99646.66;4971766;23;20024;-92
2021/12/29 11:30:09;;;;;;;10.68;4.95;;;;;;;7.04;100.00;99645.34;6682573;23;20074;-94
2021/12/29 11:33:14;;;;;;;9.73;5.57;;;;;;;7.04;100.00;99640.19;6235790;23;20050;-94
2021/12/29 11:36:21;;;;;;;8.90;4.93;;;;;;;7.04;100.00;99636.81;6035391;29;20045;-94
2021/12/29 11:39:30;;;;;;;8.43;4.63;;;;;;;7.03;100.00;99640.31;6015508;29;20066;-94
2021/12/29 11:42:33;;;;;;;7.38;4.85;;;;;;;7.00;100.00;99640.56;5992520;29;20374;-93
2021/12/29 11:45:37;;;;;;;7.03;4.78;;;;;;;7.01;100.00;99642.22;5974718;29;20061;-93
2021/12/29 11:48:39;;;;;;;6.40;4.45;;;;;;;7.00;100.00;99649.09;5968723;29;20127;-93
2021/12/29 11:52:19;;;;;;;7.93;4.90;;;;;;;6.99;100.00;99649.22;5965363;29;20058;-93
2021/12/29 11:55:30;;;;;;;7.22;4.28;;;;;;;7.01;100.00;99650.75;5956972;29;20073;-93
2021/12/29 11:58:36;;;;;;;6.60;4.03;;;;;;;7.06;100.00;99663.25;5956534;29;20050;-93
2021/12/29 12:01:38;;;;;;;5.65;4.00;;;;;;;7.17;100.00;99677.84;5954516;29;20388;-93
2021/12/29 12:04:41;;;;;;;5.95;3.67;;;;;;;7.19;100.00;99688.84;5948511;29;20131;-93
2021/12/29 12:07:44;;;;;;;6.35;3.85;;;;;;;7.14;100.00;99684.06;5953453;29;20043;-93
2021/12/29 12:10:47;;;;;;;6.68;3.53;;;;;;;7.14;100.00;99683.25;5953210;29;20066;-93
2021/12/29 12:13:51;;;;;;;3.33;2.63;;;;;;;7.05;100.00;99674.47;5966699;29;20043;-93
2021/12/29 13:10:32;;;;;;;6.22;3.40;;;;;;;7.12;100.00;99730.47;6545219;23;20029;-93
2021/12/29 13:17:21;;;;;;;5.38;3.60;;;;;;;7.06;100.00;99728.41;6013693;29;20050;-93
2021/12/29 13:24:25;;;;;;;5.75;3.05;;;;;;;6.94;100.00;99731.91;6718173;23;20081;-93
2021/12/29 13:27:29;;;;;;;3.50;2.40;;;;;;;6.96;100.00;99744.66;6002887;29;20118;-93
2021/12/29 13:30:55;;;;;;;5.25;2.63;;;;;;;6.97;100.00;99751.44;6016793;29;20061;-93
2021/12/29 13:34:00;;;;;;;5.05;2.80;;;;;;;6.97;100.00;99751.44;6009269;29;20046;-93
2021/12/29 13:37:09;;;;;;;5.80;2.95;;;;;;;6.96;100.00;99742.91;6010109;29;20206;-93
2021/12/29 13:40:13;;;;;;;5.07;3.10;;;;;;;6.94;100.00;99739.63;6005222;29;20038;-92
2021/12/29 13:43:19;;;;;;;5.60;3.40;;;;;;;6.93;100.00;99743.13;5999434;29;20053;-92
2021/12/29 13:46:24;;;;;;;5.25;3.13;;;;;;;6.85;100.00;99745.47;6012004;29;20046;-93
2021/12/29 13:49:28;;;;;;;6.18;3.65;;;;;;;6.85;100.00;99748.03;6001797;29;20074;-93
2021/12/29 13:52:31;;;;;;;7.68;3.45;;;;;;;6.87;100.00;99756.47;6002578;29;20049;-93
2021/12/29 13:55:36;;;;;;;6.72;4.05;;;;;;;6.87;100.00;99746.16;6002148;29;20060;-92
2021/12/29 13:58:41;;;;;;;9.13;3.33;;;;;;;6.86;100.00;99745.34;5994399;29;20046;-92
2021/12/29 14:01:53;;;;;;;5.70;3.25;;;;;;;6.88;100.00;99755.50;5987118;29;20042;-92
2021/12/29 14:04:57;;;;;;;6.45;3.55;;;;;;;6.88;100.00;99752.94;5991941;29;20073;-91
2021/12/29 14:07:59;;;;;;;8.07;3.97;;;;;;;6.90;100.00;99751.06;5997170;29;20068;-91
2021/12/29 14:11:05;;;;;;;6.00;3.75;;;;;;;6.92;100.00;99748.41;5985628;29;20336;-91
2021/12/29 14:14:10;;;;;;;6.25;3.88;;;;;;;6.89;100.00;99754.59;5990978;29;20057;-91
2021/12/29 14:17:23;;;;;;;;;;;;;;;6.88;100.00;99750.38;5989270;29;20106;-91
2021/12/29 14:20:25;;;;;;;9.40;3.83;;;;;;;6.84;100.00;99754.94;5992146;29;19928;-90
2021/12/29 14:23:37;;;;;;;6.57;3.75;;;;;;;6.84;100.00;99761.84;5999091;29;20171;-91
2021/12/29 14:26:44;;;;;;;6.95;3.83;;;;;;;6.80;100.00;99766.38;5994436;29;20049;-91
2021/12/29 14:29:46;;;;;;;6.60;3.75;;;;;;;6.77;100.00;99761.47;5984563;29;20432;-91
2021/12/29 14:32:53;;;;;;;6.93;4.20;;;;;;;6.73;100.00;99770.34;5991413;29;20137;-91
2021/12/29 14:35:55;;;;;;;8.98;3.53;;;;;;;6.69;100.00;99781.81;5997153;29;20508;-91
2021/12/29 14:39:18;;;;;;;8.25;3.83;;;;;;;6.63;100.00;99782.25;5987454;29;20046;-91
2021/12/29 14:42:25;;;;;;;6.03;3.40;;;;;;;6.57;100.00;99770.69;5983518;29;20069;-91
2021/12/29 14:45:27;;;;;;;7.57;3.60;;;;;;;6.51;100.00;99786.59;5992942;29;20145;-91
2021/12/29 14:48:32;;;;;;;6.38;4.07;;;;;;;6.47;100.00;99787.72;5987315;29;20206;-91
2021/12/29 14:51:48;;;;;;;7.05;4.68;;;;;;;6.42;100.00;99788.06;5988555;29;20050;-91
2021/12/29 14:54:56;;;;;;;7.25;4.78;;;;;;;6.41;100.00;99783.03;5985265;29;20053;-91
2021/12/29 14:57:58;;;;;;;7.15;5.10;;;;;;;6.37;100.00;99781.63;5994788;29;20572;-91
2021/12/29 15:01:04;;;;;;;7.20;5.10;;;;;;;6.35;100.00;99773.22;5987531;29;20050;-91
2021/12/29 15:04:07;;;;;;;9.35;5.38;;;;;;;6.32;100.00;99771.69;5994046;29;20042;-91
2021/12/29 15:07:14;;;;;;;9.60;5.13;;;;;;;6.30;100.00;99762.44;5998852;29;20049;-91
2021/12/29 15:10:16;;;;;;;9.52;5.13;;;;;;;6.24;100.00;99764.53;5989593;29;20137;-91
2021/12/29 15:13:19;;;;;;;8.93;5.70;;;;;;;6.20;100.00;99755.41;5993716;29;20048;-91
2021/12/29 15:16:25;;;;;;;12.60;6.60;;;;;;;6.15;100.00;99752.34;5973355;29;20050;-90
2021/12/29 15:19:27;;;;;;;11.65;5.80;;;;;;;6.12;100.00;99759.47;5989753;29;20389;-90
2021/12/29 15:22:29;;;;;;;9.32;5.40;;;;;;;6.10;100.00;99761.34;6000755;29;20053;-90
2021/12/29 15:25:33;;;;;;;8.40;4.90;;;;;;;6.07;100.00;99764.94;5998357;29;20152;-91
2021/12/29 15:28:50;;;;;;;10.23;5.30;;;;;;;6.04;100.00;99770.31;5998640;29;20513;-91
2021/12/29 15:31:53;;;;;;;11.40;6.68;;;;;;;6.02;100.00;99769.59;5991360;29;20382;-91
2021/12/29 15:34:57;;;;;;;11.75;6.10;;;;;;;6.00;100.00;99776.59;5992463;29;20043;-90
2021/12/29 15:37:59;;;;;;;12.15;6.20;;;;;;;5.97;100.00;99784.53;5985350;29;20528;-90
2021/12/29 15:41:29;;;;;;;10.40;5.43;;;;;;;5.96;100.00;99775.16;5988761;29;20541;-90
2021/12/29 15:44:51;;;;;;;13.20;5.57;;;;;;;5.94;100.00;99771.91;5999934;29;20436;-91
2021/12/29 15:47:54;;;;;;;10.63;5.35;;;;;;;5.92;100.00;99768.59;5982953;29;20567;-90
2021/12/29 15:51:18;;;;;;;12.77;4.95;;;;;;;5.90;100.00;99765.31;6000646;29;20087;-91
2021/12/29 15:54:26;;;;;;;9.75;5.22;;;;;;;5.88;100.00;99756.91;5991752;29;20047;-90